sensor_id;sensor_type;location;lat;lon;timestamp;pressure;altitude;pressure_sealevel;temperature;humidity
84122;BME280;74217;51.106;17.084;2024-01-06T00:02:18;99282.16;;;2.21;78.50
84122;BME280;74217;51.106;17.084;2024-01-06T00:05:08;99265.88;;;2.15;78.35
84122;BME280;74217;51.106;17.084;2024-01-06T00:07:52;99288.25;;;2.19;78.27
84122;BME280;74217;51.106;17.084;2024-01-06T00:10:41;99272.69;;;2.19;77.97
84122;BME280;74217;51.106;17.084;2024-01-06T00:13:25;99292.31;;;2.29;78.24
84122;BME280;74217;51.106;17.084;2024-01-06T00:16:16;99286.19;;;2.31;78.42
84122;BME280;74217;51.106;17.084;2024-01-06T00:19:01;99284.28;;;2.38;78.17
84122;BME280;74217;51.106;17.084;2024-01-06T00:21:51;99286.66;;;2.45;77.76
84122;BME280;74217;51.106;17.084;2024-01-06T00:24:35;99291.09;;;2.42;77.95
84122;BME280;74217;51.106;17.084;2024-01-06T00:27:25;99291.34;;;2.33;78.30
84122;BME280;74217;51.106;17.084;2024-01-06T00:30:12;99284.28;;;2.38;78.16
84122;BME280;74217;51.106;17.084;2024-01-06T00:33:01;99287.84;;;2.34;78.25
84122;BME280;74217;51.106;17.084;2024-01-06T00:35:47;99298.16;;;2.37;78.67
84122;BME280;74217;51.106;17.084;2024-01-06T00:38:37;99292.06;;;2.38;78.47
84122;BME280;74217;51.106;17.084;2024-01-06T00:41:21;99293.75;;;2.40;78.00
84122;BME280;74217;51.106;17.084;2024-01-06T00:44:11;99295.50;;;2.38;77.78
84122;BME280;74217;51.106;17.084;2024-01-06T00:46:58;99298.63;;;2.51;77.58
84122;BME280;74217;51.106;17.084;2024-01-06T00:49:47;99281.72;;;2.36;77.76
84122;BME280;74217;51.106;17.084;2024-01-06T00:52:34;99308.19;;;2.49;77.72
84122;BME280;74217;51.106;17.084;2024-01-06T00:55:23;99309.06;;;2.49;77.87
84122;BME280;74217;51.106;17.084;2024-01-06T00:58:08;99303.34;;;2.37;78.61
84122;BME280;74217;51.106;17.084;2024-01-06T01:00:58;99300.66;;;2.40;78.30
84122;BME280;74217;51.106;17.084;2024-01-06T01:03:42;99291.25;;;2.36;78.01
84122;BME280;74217;51.106;17.084;2024-01-06T01:06:32;99307.91;;;2.27;78.57
84122;BME280;74217;51.106;17.084;2024-01-06T01:09:16;99303.34;;;2.37;78.21
84122;BME280;74217;51.106;17.084;2024-01-06T01:12:05;99298.56;;;2.52;77.52
84122;BME280;74217;51.106;17.084;2024-01-06T01:14:52;99306.34;;;2.54;77.52
84122;BME280;74217;51.106;17.084;2024-01-06T01:17:42;99301.56;;;2.39;77.78
84122;BME280;74217;51.106;17.084;2024-01-06T01:20:26;99310.31;;;2.35;78.72
84122;BME280;74217;51.106;17.084;2024-01-06T01:23:16;99313.63;;;2.40;77.67
84122;BME280;74217;51.106;17.084;2024-01-06T01:26:00;99319.34;;;2.52;76.82
84122;BME280;74217;51.106;17.084;2024-01-06T01:28:51;99288.75;;;2.33;77.13
84122;BME280;74217;51.106;17.084;2024-01-06T01:31:36;99322.75;;;2.56;76.70
84122;BME280;74217;51.106;17.084;2024-01-06T01:34:26;99321.75;;;2.60;77.16
84122;BME280;74217;51.106;17.084;2024-01-06T01:37:11;99318.66;;;2.46;78.31
84122;BME280;74217;51.106;17.084;2024-01-06T01:39:59;99324.00;;;2.41;78.47
84122;BME280;74217;51.106;17.084;2024-01-06T01:42:45;99322.06;;;2.48;77.68
84122;BME280;74217;51.106;17.084;2024-01-06T01:45:34;99308.16;;;2.50;77.06
84122;BME280;74217;51.106;17.084;2024-01-06T01:48:22;99297.00;;;2.47;77.16
84122;BME280;74217;51.106;17.084;2024-01-06T01:51:12;99328.47;;;2.67;76.97
84122;BME280;74217;51.106;17.084;2024-01-06T01:53:57;99332.78;;;2.68;76.69
84122;BME280;74217;51.106;17.084;2024-01-06T01:56:48;99321.34;;;2.75;75.92
84122;BME280;74217;51.106;17.084;2024-01-06T01:59:33;99329.88;;;2.80;76.42
84122;BME280;74217;51.106;17.084;2024-01-06T02:02:22;99325.53;;;2.80;76.62
84122;BME280;74217;51.106;17.084;2024-01-06T02:05:07;99310.00;;;2.77;76.58
84122;BME280;74217;51.106;17.084;2024-01-06T02:07:56;99300.19;;;2.58;77.26
84122;BME280;74217;51.106;17.084;2024-01-06T02:10:41;99316.56;;;2.60;77.52
84122;BME280;74217;51.106;17.084;2024-01-06T02:13:37;99299.88;;;2.38;77.68
84122;BME280;74217;51.106;17.084;2024-01-06T02:16:21;99317.38;;;2.62;76.96
84122;BME280;74217;51.106;17.084;2024-01-06T02:19:11;99312.81;;;2.70;76.77
84122;BME280;74217;51.106;17.084;2024-01-06T02:21:56;99311.94;;;2.39;77.56
84122;BME280;74217;51.106;17.084;2024-01-06T02:24:46;99309.03;;;2.51;76.99
84122;BME280;74217;51.106;17.084;2024-01-06T02:27:31;99301.06;;;2.57;77.27
84122;BME280;74217;51.106;17.084;2024-01-06T02:30:20;99303.72;;;2.54;76.82
84122;BME280;74217;51.106;17.084;2024-01-06T02:33:05;99300.81;;;2.66;76.38
84122;BME280;74217;51.106;17.084;2024-01-06T02:35:55;99303.56;;;2.60;76.51
84122;BME280;74217;51.106;17.084;2024-01-06T02:38:39;99299.44;;;2.53;76.45
84122;BME280;74217;51.106;17.084;2024-01-06T02:41:29;99298.09;;;2.38;77.00
84122;BME280;74217;51.106;17.084;2024-01-06T02:44:13;99302.13;;;2.50;76.78
84122;BME280;74217;51.106;17.084;2024-01-06T02:47:03;99311.53;;;2.54;76.70
84122;BME280;74217;51.106;17.084;2024-01-06T02:49:47;99314.25;;;2.49;76.66
84122;BME280;74217;51.106;17.084;2024-01-06T02:52:36;99315.19;;;2.47;76.97
84122;BME280;74217;51.106;17.084;2024-01-06T02:55:23;99322.84;;;2.51;76.55
84122;BME280;74217;51.106;17.084;2024-01-06T02:58:11;99332.13;;;2.60;76.39
84122;BME280;74217;51.106;17.084;2024-01-06T03:00:57;99316.84;;;2.49;76.65
84122;BME280;74217;51.106;17.084;2024-01-06T03:03:48;99300.97;;;2.28;76.89
84122;BME280;74217;51.106;17.084;2024-01-06T03:06:32;99309.50;;;2.33;77.13
84122;BME280;74217;51.106;17.084;2024-01-06T03:09:22;99308.16;;;2.18;77.78
84122;BME280;74217;51.106;17.084;2024-01-06T03:12:07;99295.66;;;2.32;77.33
84122;BME280;74217;51.106;17.084;2024-01-06T03:14:56;99298.38;;;2.28;77.19
84122;BME280;74217;51.106;17.084;2024-01-06T03:17:43;99301.63;;;2.36;77.07
84122;BME280;74217;51.106;17.084;2024-01-06T03:20:32;99313.16;;;2.26;77.30
84122;BME280;74217;51.106;17.084;2024-01-06T03:23:17;99310.09;;;2.44;76.62
84122;BME280;74217;51.106;17.084;2024-01-06T03:26:09;99301.72;;;2.33;77.05
84122;BME280;74217;51.106;17.084;2024-01-06T03:28:56;99327.88;;;2.57;75.76
84122;BME280;74217;51.106;17.084;2024-01-06T03:31:46;99325.81;;;2.38;75.99
84122;BME280;74217;51.106;17.084;2024-01-06T03:34:31;99329.13;;;2.43;76.88
84122;BME280;74217;51.106;17.084;2024-01-06T03:37:20;99322.69;;;2.24;77.61
84122;BME280;74217;51.106;17.084;2024-01-06T03:40:07;99328.31;;;2.41;76.56
84122;BME280;74217;51.106;17.084;2024-01-06T03:42:56;99332.78;;;2.36;76.04
84122;BME280;74217;51.106;17.084;2024-01-06T03:45:42;99345.44;;;2.48;76.42
84122;BME280;74217;51.106;17.084;2024-01-06T03:48:32;99314.06;;;2.25;77.26
84122;BME280;74217;51.106;17.084;2024-01-06T03:51:19;99346.19;;;2.51;76.26
84122;BME280;74217;51.106;17.084;2024-01-06T03:54:08;99336.91;;;2.43;76.40
84122;BME280;74217;51.106;17.084;2024-01-06T03:56:54;99339.75;;;2.34;77.15
84122;BME280;74217;51.106;17.084;2024-01-06T03:59:44;99341.25;;;2.42;76.63
84122;BME280;74217;51.106;17.084;2024-01-06T04:02:29;99346.19;;;2.51;76.21
84122;BME280;74217;51.106;17.084;2024-01-06T04:05:18;99341.63;;;2.61;75.71
84122;BME280;74217;51.106;17.084;2024-01-06T04:08:03;99335.19;;;2.43;76.70
84122;BME280;74217;51.106;17.084;2024-01-06T04:10:52;99339.50;;;2.43;76.50
84122;BME280;74217;51.106;17.084;2024-01-06T04:13:36;99339.28;;;2.52;76.09
84122;BME280;74217;51.106;17.084;2024-01-06T04:16:26;99347.25;;;2.44;76.95
84122;BME280;74217;51.106;17.084;2024-01-06T04:19:11;99345.53;;;2.45;76.35
84122;BME280;74217;51.106;17.084;2024-01-06T04:22:01;99343.09;;;2.39;76.56
84122;BME280;74217;51.106;17.084;2024-01-06T04:24:46;99348.91;;;2.48;76.46
84122;BME280;74217;51.106;17.084;2024-01-06T04:27:35;99357.47;;;2.50;76.06
84122;BME280;74217;51.106;17.084;2024-01-06T04:30:22;99361.63;;;2.57;76.46
84122;BME280;74217;51.106;17.084;2024-01-06T04:33:11;99360.09;;;2.49;76.09
84122;BME280;74217;51.106;17.084;2024-01-06T04:35:56;99360.22;;;2.46;76.66
84122;BME280;74217;51.106;17.084;2024-01-06T04:38:46;99363.88;;;2.37;77.45
84122;BME280;74217;51.106;17.084;2024-01-06T04:41:31;99362.03;;;2.42;76.95
84122;BME280;74217;51.106;17.084;2024-01-06T04:44:23;99343.09;;;2.39;76.27
84122;BME280;74217;51.106;17.084;2024-01-06T04:47:08;99362.94;;;2.41;76.66
84122;BME280;74217;51.106;17.084;2024-01-06T04:49:56;99355.25;;;2.37;76.74
84122;BME280;74217;51.106;17.084;2024-01-06T04:52:43;99366.78;;;2.59;75.60
84122;BME280;74217;51.106;17.084;2024-01-06T04:55:32;99370.84;;;2.37;75.93
84122;BME280;74217;51.106;17.084;2024-01-06T04:58:17;99375.13;;;2.38;76.58
84122;BME280;74217;51.106;17.084;2024-01-06T05:01:07;99370.28;;;2.24;75.36
84122;BME280;74217;51.106;17.084;2024-01-06T05:03:53;99373.06;;;2.50;75.27
84122;BME280;74217;51.106;17.084;2024-01-06T05:06:42;99376.59;;;2.48;75.53
84122;BME280;74217;51.106;17.084;2024-01-06T05:09:28;99382.50;;;2.53;75.15
84122;BME280;74217;51.106;17.084;2024-01-06T05:12:18;99381.84;;;2.46;74.95
84122;BME280;74217;51.106;17.084;2024-01-06T05:15:02;99394.34;;;2.31;76.45
84122;BME280;74217;51.106;17.084;2024-01-06T05:17:52;99402.78;;;2.39;75.96
84122;BME280;74217;51.106;17.084;2024-01-06T05:20:39;99408.56;;;2.50;74.98
84122;BME280;74217;51.106;17.084;2024-01-06T05:23:30;99385.72;;;2.29;75.15
84122;BME280;74217;51.106;17.084;2024-01-06T05:26:14;99410.31;;;2.48;75.21
84122;BME280;74217;51.106;17.084;2024-01-06T05:29:03;99402.78;;;2.39;75.33
84122;BME280;74217;51.106;17.084;2024-01-06T05:31:48;99420.72;;;2.48;74.92
84122;BME280;74217;51.106;17.084;2024-01-06T05:34:38;99417.31;;;2.46;75.07
84122;BME280;74217;51.106;17.084;2024-01-06T05:37:22;99420.06;;;2.40;75.37
84122;BME280;74217;51.106;17.084;2024-01-06T05:40:12;99416.72;;;2.35;74.87
84122;BME280;74217;51.106;17.084;2024-01-06T05:42:56;99422.16;;;2.24;75.69
84122;BME280;74217;51.106;17.084;2024-01-06T05:45:45;99423.09;;;2.22;75.77
84122;BME280;74217;51.106;17.084;2024-01-06T05:48:30;99421.41;;;2.21;75.99
84122;BME280;74217;51.106;17.084;2024-01-06T05:51:19;99420.63;;;2.17;76.06
84122;BME280;74217;51.106;17.084;2024-01-06T05:54:04;99435.94;;;2.26;76.18
84122;BME280;74217;51.106;17.084;2024-01-06T05:56:55;99432.78;;;2.15;76.54
84122;BME280;74217;51.106;17.084;2024-01-06T05:59:40;99441.91;;;2.30;76.59
84122;BME280;74217;51.106;17.084;2024-01-06T06:02:30;99441.25;;;2.22;76.43
84122;BME280;74217;51.106;17.084;2024-01-06T06:05:17;99425.63;;;2.25;76.05
84122;BME280;74217;51.106;17.084;2024-01-06T06:08:06;99442.63;;;2.36;75.99
84122;BME280;74217;51.106;17.084;2024-01-06T06:10:52;99451.88;;;2.13;76.63
84122;BME280;74217;51.106;17.084;2024-01-06T06:13:51;99444.00;;;2.16;76.02
84122;BME280;74217;51.106;17.084;2024-01-06T06:16:35;99445.63;;;2.20;75.60
84122;BME280;74217;51.106;17.084;2024-01-06T06:19:24;99448.97;;;2.25;76.08
84122;BME280;74217;51.106;17.084;2024-01-06T06:22:09;99449.19;;;2.16;76.33
84122;BME280;74217;51.106;17.084;2024-01-06T06:25:00;99440.97;;;1.97;76.83
84122;BME280;74217;51.106;17.084;2024-01-06T06:27:48;99452.75;;;2.12;77.20
84122;BME280;74217;51.106;17.084;2024-01-06T06:30:37;99461.53;;;2.05;76.47
84122;BME280;74217;51.106;17.084;2024-01-06T06:33:24;99455.53;;;2.03;76.33
84122;BME280;74217;51.106;17.084;2024-01-06T06:36:13;99456.81;;;2.23;74.90
84122;BME280;74217;51.106;17.084;2024-01-06T06:38:58;99456.22;;;2.11;75.76
84122;BME280;74217;51.106;17.084;2024-01-06T06:41:47;99469.81;;;2.22;75.33
84122;BME280;74217;51.106;17.084;2024-01-06T06:44:33;99480.31;;;2.16;76.44
84122;BME280;74217;51.106;17.084;2024-01-06T06:47:23;99484.97;;;2.02;75.81
84122;BME280;74217;51.106;17.084;2024-01-06T06:50:07;99487.56;;;2.02;74.67
84122;BME280;74217;51.106;17.084;2024-01-06T06:52:58;99491.84;;;2.03;75.66
84122;BME280;74217;51.106;17.084;2024-01-06T06:55:43;99504.66;;;2.12;75.21
84122;BME280;74217;51.106;17.084;2024-01-06T06:58:32;99509.63;;;2.21;74.69
84122;BME280;74217;51.106;17.084;2024-01-06T07:01:16;99509.34;;;1.93;74.78
84122;BME280;74217;51.106;17.084;2024-01-06T07:04:05;99509.97;;;2.06;75.45
84122;BME280;74217;51.106;17.084;2024-01-06T07:06:49;99516.59;;;2.19;74.78
84122;BME280;74217;51.106;17.084;2024-01-06T07:09:40;99514.06;;;2.14;75.31
84122;BME280;74217;51.106;17.084;2024-01-06T07:12:25;99511.94;;;1.93;75.41
84122;BME280;74217;51.106;17.084;2024-01-06T07:15:16;99488.03;;;1.81;74.82
84122;BME280;74217;51.106;17.084;2024-01-06T07:18:00;99513.88;;;1.85;75.13
84122;BME280;74217;51.106;17.084;2024-01-06T07:20:50;99513.88;;;1.84;75.17
84122;BME280;74217;51.106;17.084;2024-01-06T07:23:34;99516.59;;;1.78;76.08
84122;BME280;74217;51.106;17.084;2024-01-06T07:26:24;99492.94;;;1.53;76.15
84122;BME280;74217;51.106;17.084;2024-01-06T07:29:08;99514.63;;;1.90;75.29
84122;BME280;74217;51.106;17.084;2024-01-06T07:31:57;99519.81;;;1.90;75.06
84122;BME280;74217;51.106;17.084;2024-01-06T07:34:44;99524.34;;;1.81;75.10
84122;BME280;74217;51.106;17.084;2024-01-06T07:37:33;99528.44;;;1.91;75.63
84122;BME280;74217;51.106;17.084;2024-01-06T07:40:17;99526.72;;;1.90;74.49
84122;BME280;74217;51.106;17.084;2024-01-06T07:43:04;99535.28;;;1.95;75.28
84122;BME280;74217;51.106;17.084;2024-01-06T07:45:50;99544.50;;;2.08;74.02
84122;BME280;74217;51.106;17.084;2024-01-06T07:48:40;99554.63;;;2.20;73.79
84122;BME280;74217;51.106;17.084;2024-01-06T07:51:24;99554.41;;;2.29;73.19
84122;BME280;74217;51.106;17.084;2024-01-06T07:54:13;99545.69;;;2.31;73.64
84122;BME280;74217;51.106;17.084;2024-01-06T07:57:00;99551.91;;;2.24;73.77
84122;BME280;74217;51.106;17.084;2024-01-06T07:59:49;99549.16;;;2.32;73.73
84122;BME280;74217;51.106;17.084;2024-01-06T08:02:33;99557.09;;;2.24;73.81
84122;BME280;74217;51.106;17.084;2024-01-06T08:05:23;99570.81;;;2.31;73.13
84122;BME280;74217;51.106;17.084;2024-01-06T08:08:07;99572.59;;;2.27;74.35
84122;BME280;74217;51.106;17.084;2024-01-06T08:10:57;99574.41;;;2.24;74.63
84122;BME280;74217;51.106;17.084;2024-01-06T08:13:41;99575.91;;;2.35;73.95
84122;BME280;74217;51.106;17.084;2024-01-06T08:16:30;99552.31;;;2.06;74.82
84122;BME280;74217;51.106;17.084;2024-01-06T08:19:16;99578.22;;;2.08;75.08
84122;BME280;74217;51.106;17.084;2024-01-06T08:22:05;99577.13;;;2.18;74.49
84122;BME280;74217;51.106;17.084;2024-01-06T08:24:50;99582.19;;;2.24;74.35
84122;BME280;74217;51.106;17.084;2024-01-06T08:27:40;99593.88;;;2.43;73.43
84122;BME280;74217;51.106;17.084;2024-01-06T08:30:24;99597.25;;;2.48;72.66
84122;BME280;74217;51.106;17.084;2024-01-06T08:33:13;99593.66;;;2.53;72.80
84122;BME280;74217;51.106;17.084;2024-01-06T08:36:01;99592.13;;;2.45;73.23
84122;BME280;74217;51.106;17.084;2024-01-06T08:38:51;99601.59;;;2.47;73.11
84122;BME280;74217;51.106;17.084;2024-01-06T08:41:38;99605.91;;;2.47;74.46
84122;BME280;74217;51.106;17.084;2024-01-06T08:44:27;99606.06;;;2.41;72.39
84122;BME280;74217;51.106;17.084;2024-01-06T08:47:12;99616.44;;;2.41;73.34
84122;BME280;74217;51.106;17.084;2024-01-06T08:50:02;99614.97;;;2.29;74.04
84122;BME280;74217;51.106;17.084;2024-01-06T08:52:48;99629.44;;;2.39;73.92
84122;BME280;74217;51.106;17.084;2024-01-06T08:55:38;99628.59;;;2.39;74.35
84122;BME280;74217;51.106;17.084;2024-01-06T08:58:22;99630.50;;;2.31;75.06
84122;BME280;74217;51.106;17.084;2024-01-06T09:01:12;99641.63;;;2.36;74.45
84122;BME280;74217;51.106;17.084;2024-01-06T09:03:59;99635.06;;;2.18;74.87
84122;BME280;74217;51.106;17.084;2024-01-06T09:06:47;99632.25;;;2.29;75.38
84122;BME280;74217;51.106;17.084;2024-01-06T09:09:32;99639.16;;;2.30;75.84
84122;BME280;74217;51.106;17.084;2024-01-06T09:12:22;99645.25;;;2.27;75.70
84122;BME280;74217;51.106;17.084;2024-01-06T09:15:07;99646.00;;;2.34;75.46
84122;BME280;74217;51.106;17.084;2024-01-06T09:17:56;99648.56;;;2.35;76.28
84122;BME280;74217;51.106;17.084;2024-01-06T09:20:43;99651.16;;;2.37;75.55
84122;BME280;74217;51.106;17.084;2024-01-06T09:23:32;99640.13;;;2.26;75.44
84122;BME280;74217;51.106;17.084;2024-01-06T09:26:17;99654.13;;;2.19;74.23
84122;BME280;74217;51.106;17.084;2024-01-06T09:29:06;99662.84;;;2.15;75.33
84122;BME280;74217;51.106;17.084;2024-01-06T09:31:50;99664.63;;;2.11;74.93
84122;BME280;74217;51.106;17.084;2024-01-06T09:34:39;99668.22;;;2.04;74.61
84122;BME280;74217;51.106;17.084;2024-01-06T09:37:25;99661.34;;;2.03;76.20
84122;BME280;74217;51.106;17.084;2024-01-06T09:40:17;99669.97;;;2.04;76.84
84122;BME280;74217;51.106;17.084;2024-01-06T09:43:05;99662.94;;;2.09;77.24
84122;BME280;74217;51.106;17.084;2024-01-06T09:46:02;99642.34;;;2.01;75.99
84122;BME280;74217;51.106;17.084;2024-01-06T09:48:51;99665.78;;;1.97;77.46
84122;BME280;74217;51.106;17.084;2024-01-06T09:51:41;99667.31;;;2.07;76.41
84122;BME280;74217;51.106;17.084;2024-01-06T09:54:30;99663.72;;;2.14;76.48
84122;BME280;74217;51.106;17.084;2024-01-06T09:57:22;99665.53;;;2.09;76.60
84122;BME280;74217;51.106;17.084;2024-01-06T10:00:07;99665.19;;;2.27;75.66
84122;BME280;74217;51.106;17.084;2024-01-06T10:02:59;99665.28;;;2.22;75.54
84122;BME280;74217;51.106;17.084;2024-01-06T10:05:44;99663.47;;;2.26;75.41
84122;BME280;74217;51.106;17.084;2024-01-06T10:08:33;99678.31;;;2.19;76.08
84122;BME280;74217;51.106;17.084;2024-01-06T10:11:20;99679.31;;;2.11;77.04
84122;BME280;74217;51.106;17.084;2024-01-06T10:14:11;99675.88;;;2.12;76.98
84122;BME280;74217;51.106;17.084;2024-01-06T10:16:57;99688.00;;;2.10;75.93
84122;BME280;74217;51.106;17.084;2024-01-06T10:19:47;99680.34;;;2.02;76.81
84122;BME280;74217;51.106;17.084;2024-01-06T10:22:38;99693.38;;;2.01;76.37
84122;BME280;74217;51.106;17.084;2024-01-06T10:25:29;99694.78;;;2.17;75.17
84122;BME280;74217;51.106;17.084;2024-01-06T10:28:15;99694.97;;;2.08;76.31
84122;BME280;74217;51.106;17.084;2024-01-06T10:31:05;99701.28;;;1.93;75.51
84122;BME280;74217;51.106;17.084;2024-01-06T10:33:49;99693.63;;;1.86;76.13
84122;BME280;74217;51.106;17.084;2024-01-06T10:36:36;99697.34;;;1.73;77.24
84122;BME280;74217;51.106;17.084;2024-01-06T10:39:23;99684.84;;;1.94;75.70
84122;BME280;74217;51.106;17.084;2024-01-06T10:42:13;99690.09;;;1.91;76.15
84122;BME280;74217;51.106;17.084;2024-01-06T10:44:59;99691.22;;;1.77;75.92
84122;BME280;74217;51.106;17.084;2024-01-06T10:47:49;99686.16;;;1.71;77.96
84122;BME280;74217;51.106;17.084;2024-01-06T10:50:34;99686.19;;;1.68;78.55
84122;BME280;74217;51.106;17.084;2024-01-06T10:53:23;99661.34;;;1.55;76.44
84122;BME280;74217;51.106;17.084;2024-01-06T10:56:10;99672.88;;;1.86;76.73
84122;BME280;74217;51.106;17.084;2024-01-06T10:59:00;99671.97;;;1.88;77.09
84122;BME280;74217;51.106;17.084;2024-01-06T11:01:46;99678.97;;;1.85;77.97
84122;BME280;74217;51.106;17.084;2024-01-06T11:04:35;99671.47;;;1.70;78.10
84122;BME280;74217;51.106;17.084;2024-01-06T11:07:21;99668.63;;;1.83;77.21
84122;BME280;74217;51.106;17.084;2024-01-06T11:10:15;99667.09;;;1.72;76.30
84122;BME280;74217;51.106;17.084;2024-01-06T11:13:20;99668.03;;;1.68;76.80
84122;BME280;74217;51.106;17.084;2024-01-06T11:16:09;99669.91;;;1.61;77.51
84122;BME280;74217;51.106;17.084;2024-01-06T11:18:54;99676.47;;;1.79;77.19
84122;BME280;74217;51.106;17.084;2024-01-06T11:21:44;99683.75;;;1.60;78.66
84122;BME280;74217;51.106;17.084;2024-01-06T11:24:36;99675.06;;;1.63;77.98
84122;BME280;74217;51.106;17.084;2024-01-06T11:27:26;99686.75;;;1.85;77.35
84122;BME280;74217;51.106;17.084;2024-01-06T11:30:25;99692.00;;;1.82;76.45
84122;BME280;74217;51.106;17.084;2024-01-06T11:33:14;99686.94;;;1.76;76.58
84122;BME280;74217;51.106;17.084;2024-01-06T11:36:01;99691.44;;;1.65;77.64
84122;BME280;74217;51.106;17.084;2024-01-06T11:38:50;99692.34;;;1.61;76.74
84122;BME280;74217;51.106;17.084;2024-01-06T11:41:49;99677.88;;;1.49;75.86
84122;BME280;74217;51.106;17.084;2024-01-06T11:44:39;99708.91;;;1.52;77.33
84122;BME280;74217;51.106;17.084;2024-01-06T11:47:23;99699.41;;;1.53;76.61
84122;BME280;74217;51.106;17.084;2024-01-06T11:50:13;99688.94;;;1.59;76.30
84122;BME280;74217;51.106;17.084;2024-01-06T11:52:59;99693.25;;;1.58;75.88
84122;BME280;74217;51.106;17.084;2024-01-06T11:55:48;99698.44;;;1.60;76.21
84122;BME280;74217;51.106;17.084;2024-01-06T11:58:33;99691.59;;;1.56;76.90
84122;BME280;74217;51.106;17.084;2024-01-06T12:01:22;99689.13;;;1.50;77.31
84122;BME280;74217;51.106;17.084;2024-01-06T12:04:07;99696.09;;;1.45;77.91
84122;BME280;74217;51.106;17.084;2024-01-06T12:07:04;99690.91;;;1.46;76.82
84122;BME280;74217;51.106;17.084;2024-01-06T12:09:51;99699.47;;;1.50;77.93
84122;BME280;74217;51.106;17.084;2024-01-06T12:12:40;99697.69;;;1.53;77.13
84122;BME280;74217;51.106;17.084;2024-01-06T12:15:25;99698.41;;;1.61;76.79
84122;BME280;74217;51.106;17.084;2024-01-06T12:18:14;99696.19;;;1.39;77.33
84122;BME280;74217;51.106;17.084;2024-01-06T12:20:58;99703.09;;;1.40;77.84
84122;BME280;74217;51.106;17.084;2024-01-06T12:23:47;99708.06;;;1.52;76.84
84122;BME280;74217;51.106;17.084;2024-01-06T12:26:34;99701.09;;;1.57;76.35
84122;BME280;74217;51.106;17.084;2024-01-06T12:29:26;99699.31;;;1.59;76.95
84122;BME280;74217;51.106;17.084;2024-01-06T12:32:11;99721.84;;;1.54;76.92
84122;BME280;74217;51.106;17.084;2024-01-06T12:35:01;99713.97;;;1.61;75.54
84122;BME280;74217;51.106;17.084;2024-01-06T12:37:46;99709.47;;;1.71;75.96
84122;BME280;74217;51.106;17.084;2024-01-06T12:40:36;99721.72;;;1.63;75.20
84122;BME280;74217;51.106;17.084;2024-01-06T12:43:25;99714.88;;;1.59;75.58
84122;BME280;74217;51.106;17.084;2024-01-06T12:46:13;99710.66;;;1.52;76.27
84122;BME280;74217;51.106;17.084;2024-01-06T12:48:59;99709.78;;;1.53;74.98
84122;BME280;74217;51.106;17.084;2024-01-06T12:51:48;99718.28;;;1.61;74.69
84122;BME280;74217;51.106;17.084;2024-01-06T12:54:33;99735.00;;;1.42;75.55
84122;BME280;74217;51.106;17.084;2024-01-06T12:57:23;99726.31;;;1.46;75.38
84122;BME280;74217;51.106;17.084;2024-01-06T13:00:09;99728.00;;;1.48;76.20
84122;BME280;74217;51.106;17.084;2024-01-06T13:03:00;99728.13;;;1.41;74.75
84122;BME280;74217;51.106;17.084;2024-01-06T13:05:47;99728.81;;;1.52;74.69
84122;BME280;74217;51.106;17.084;2024-01-06T13:08:36;99710.03;;;1.38;76.28
84122;BME280;74217;51.106;17.084;2024-01-06T13:11:21;99729.66;;;1.52;75.30
84122;BME280;74217;51.106;17.084;2024-01-06T13:14:10;99737.31;;;1.60;74.29
84122;BME280;74217;51.106;17.084;2024-01-06T13:16:54;99734.97;;;1.46;75.73
84122;BME280;74217;51.106;17.084;2024-01-06T13:19:43;99717.66;;;1.45;73.91
84122;BME280;74217;51.106;17.084;2024-01-06T13:22:30;99734.69;;;1.61;74.36
84122;BME280;74217;51.106;17.084;2024-01-06T13:25:19;99739.91;;;1.60;73.41
84122;BME280;74217;51.106;17.084;2024-01-06T13:28:05;99746.13;;;1.50;74.46
84122;BME280;74217;51.106;17.084;2024-01-06T13:30:55;99748.13;;;1.31;74.96
84122;BME280;74217;51.106;17.084;2024-01-06T13:33:41;99743.59;;;1.45;74.93
84122;BME280;74217;51.106;17.084;2024-01-06T13:36:31;99747.25;;;1.34;73.87
84122;BME280;74217;51.106;17.084;2024-01-06T13:39:17;99758.56;;;1.27;73.43
84122;BME280;74217;51.106;17.084;2024-01-06T13:42:08;99749.09;;;1.24;74.07
84122;BME280;74217;51.106;17.084;2024-01-06T13:44:55;99773.13;;;1.35;73.45
84122;BME280;74217;51.106;17.084;2024-01-06T13:47:44;99773.22;;;1.31;73.40
84122;BME280;74217;51.106;17.084;2024-01-06T13:50:30;99772.34;;;1.30;73.89
84122;BME280;74217;51.106;17.084;2024-01-06T13:53:19;99770.50;;;1.37;74.91
84122;BME280;74217;51.106;17.084;2024-01-06T13:56:06;99773.09;;;1.37;72.84
84122;BME280;74217;51.106;17.084;2024-01-06T13:58:54;99773.41;;;1.17;73.36
84122;BME280;74217;51.106;17.084;2024-01-06T14:01:41;99781.00;;;1.28;73.87
84122;BME280;74217;51.106;17.084;2024-01-06T14:04:31;99784.59;;;1.19;73.86
84122;BME280;74217;51.106;17.084;2024-01-06T14:07:15;99787.97;;;1.23;74.12
84122;BME280;74217;51.106;17.084;2024-01-06T14:10:07;99796.72;;;1.16;74.64
84122;BME280;74217;51.106;17.084;2024-01-06T14:12:53;99792.44;;;1.13;73.76
84122;BME280;74217;51.106;17.084;2024-01-06T14:15:43;99781.41;;;0.99;75.47
84122;BME280;74217;51.106;17.084;2024-01-06T14:18:27;99778.88;;;0.95;75.32
84122;BME280;74217;51.106;17.084;2024-01-06T14:21:14;99813.28;;;1.04;75.89
84122;BME280;74217;51.106;17.084;2024-01-06T14:24:03;99807.31;;;0.98;75.39
84122;BME280;74217;51.106;17.084;2024-01-06T14:26:52;99814.03;;;1.15;74.73
84122;BME280;74217;51.106;17.084;2024-01-06T14:29:39;99820.94;;;1.12;75.43
84122;BME280;74217;51.106;17.084;2024-01-06T14:32:28;99820.91;;;1.15;75.96
84122;BME280;74217;51.106;17.084;2024-01-06T14:35:17;99833.88;;;1.16;74.98
84122;BME280;74217;51.106;17.084;2024-01-06T14:38:04;99832.25;;;1.06;75.56
84122;BME280;74217;51.106;17.084;2024-01-06T14:40:50;99827.91;;;1.08;74.84
84122;BME280;74217;51.106;17.084;2024-01-06T14:43:39;99834.91;;;1.02;75.54
84122;BME280;74217;51.106;17.084;2024-01-06T14:46:27;99842.59;;;1.09;75.34
84122;BME280;74217;51.106;17.084;2024-01-06T14:49:15;99834.91;;;1.02;74.57